FLLK1: Fall River Lake

Data processed at Fri Dec 08 2017 23:02


All information presented herein is the property of the government of the United States of America and may be revised or deleted at any time without prior notice.
Dissemination of this information without the expressed written consent of the Public Affairs Office, Tulsa District U.S. Army Corps of Engineers is strictly prohibited.
These data are gathered electronically and, as presented, have not undergone any form of quality control. These data are not guaranteed to be valid or correct.
Go to home page.
Go to station list.

Upstream stations:

Downstream station:
Previous Day
Next Day
Current Day
    
SHEF ID:       FLLK1     Fall River Lake
STATION TYPE:  RESERVOIR
Normal Pool:  Bottom =   940.00, Top =   948.50

               PRECIP ELEVATION   STORAGE    INFLOW   RELEASE  AIR-TEMP  WIND-DIRWIND-SPEED REL-HUMID SOLAR-RAD   VOLTAGE  BAT-LOAD
                   in        ft     ac-ft       cfs       cfs         F       deg       mph         %      W/m2      volt      volt
              Ccp-Rev   Ccp-Rev   Ccp-Rev  Regi-Rev  Regi-Rev   Ccp-Rev   Ccp-Rev   Ccp-Rev   Ccp-Rev   Ccp-Rev   Ccp-Rev   Ccp-Rev
(US/Central)
12/06 00:00      0.00    948.66     21031       205         3     33.85    152.30      1.60     51.20      0.00     12.73     12.65
12/06 01:00      0.00    948.65     21009       205         3     34.45    222.40      1.80     48.75      0.00     12.69     12.57
12/06 02:00      0.00    948.74     21201       205         3     34.29     10.40      1.80     49.80      0.00     12.66     12.57
12/06 03:00      0.00    948.74     21201       102         3     36.12    340.00      4.80     45.99      0.00     12.64     12.49
12/06 04:00      0.00    948.86     21457        18         3     36.81    330.10      4.70     42.17      0.00     12.63     12.49
12/06 05:00      0.00    948.66     21031        35         3     34.70    299.50      5.00     46.15      0.00     12.62     12.49
12/06 06:00      0.00    948.94     21628        53         3     36.10    344.80      7.10     48.83      0.00     12.61     12.49
12/06 07:00      0.00    948.63     20967       208         3     33.82    294.40      4.00     52.39      0.00     12.61     12.49
12/06 08:00      0.00    948.67     21052       209         3     33.40    318.60      3.80     54.04     24.60     13.67     12.49
12/06 09:00      0.00    948.70     21116       193         3     36.34    339.40      4.10     51.56    168.30     13.51     13.53
12/06 10:00      0.00    948.70     21116       176         3     40.12      2.70      8.60     51.03    319.90     13.56     13.60
12/06 11:00      0.00    948.84     21415       158         3     44.44      6.50     12.40     45.50    406.50     13.54     13.84
12/06 12:00      0.00    948.71     21137         2         3     45.54      3.40     16.10     45.00    487.10     13.56     13.60
12/06 13:00      0.00    948.78     21287         2         3     47.73    355.50     16.10     41.18    498.50     13.62     13.68
12/06 14:00      0.00    948.79     21308         1         3     48.06      3.70     17.60     38.62    330.30     13.88     13.84
12/06 15:00      0.00    948.68     21073         3         3     48.36      7.00     17.80     34.45    312.00     13.60     13.76
12/06 16:00      0.00    948.77     21265         4         3     48.36    353.50     15.40     30.57    192.50     14.32     13.44
12/06 17:00      0.00    948.65     21009         9         3     47.75     17.90     14.20     37.95     37.70     13.20     13.44
12/06 18:00      0.00    948.69     21095        19         3     45.97      6.30      7.90     40.27      0.00     12.95     13.05
12/06 19:00      0.00    948.81     21351        28         3     42.89    314.30      5.50     36.03      0.00     12.89     12.81
12/06 20:00      0.00    948.62     20945        90         3     41.83     15.80      9.40     47.78      0.00     12.86     12.73
12/06 21:00      0.00    948.68     21073        95         3     40.50     33.90     11.00     55.08      0.00     12.84     12.73
12/06 22:00      0.00    948.75     21223        97         3     38.77     44.70     12.90     60.38      0.00     12.82     12.65
12/06 23:00      0.00    948.72     21159       448         3     35.91     47.00     13.00     64.06      0.00     12.79     12.65